• Join FlightAware (Why Join?)
  • Login
  • US Flag 
06:34PM EST


 

Airport Tracker/Info


-or-


 

Live Flight TrackerFlight Track Log ✈ N43959 ✈ 14-Jun-2013 ✈ KALB - KGON

Flight Track Log - Related Links

Times and Time Zones

All times are in EDT time to prevent confusion due to time zone crossing. See the N43959 flight status page for this flight to view local times or setup timezone preferences in your user account.

Time Position Orientation Groundspeed Altitude Reporting Facility
EDT Latitude Longitude Course Direction KTS MPH feet Rate Location/Type
10:57AM 42.7506 -73.8058 30° Northeast 71 82 800  Level Boston Center
10:57AM 42.7611 -73.7975 30° Northeast 75 86 1,100 600 Climbing Boston Center
10:58AM 42.7678 -73.7750 68° East 86 99 1,700 660 Climbing Boston Center
10:59AM 42.7700 -73.7467 84° East 82 94 2,400 660 Climbing Boston Center
11:00AM 42.7683 -73.7100 94° East 82 94 3,200 660 Climbing Boston Center
11:01AM 42.7542 -73.6842 127° Southeast 100 115 3,800 540 Climbing Boston Center
11:02AM 42.7292 -73.6697 157° South 105 121 4,300 480 Climbing Boston Center
11:03AM 42.7067 -73.6467 143° Southeast 98 113 4,800 360 Climbing Boston Center
11:04AM 42.6839 -73.6208 140° Southeast 106 122 5,100 120 Climbing Boston Center
11:05AM 42.6592 -73.5892 137° Southeast 125 144 5,100  Level Boston Center
11:06AM 42.6344 -73.5606 140° Southeast 127 146 5,100  Level Boston Center
11:07AM 42.6078 -73.5375 148° Southeast 125 144 5,100  Level Boston Center
11:08AM 42.5789 -73.5031 139° Southeast 125 144 5,100  Level Boston Center
11:09AM 42.5500 -73.4744 144° Southeast 125 144 5,100  Level Boston Center
11:10AM 42.5253 -73.4431 137° Southeast 123 142 5,200  Climbing Boston Center
11:11AM 42.4964 -73.4117 141° Southeast 127 146 5,100  Descending Boston Center
11:12AM 42.4694 -73.3831 142° Southeast 131 151 5,200  Climbing Boston Center
11:13AM 42.4425 -73.3544 142° Southeast 129 148 5,100 -60 Descending Boston Center
11:14AM 42.4178 -73.3258 139° Southeast 125 144 5,100  Level Boston Center
11:15AM 42.3869 -73.2889 138° Southeast 125 144 5,200 240 Climbing Boston Center
11:16AM 42.3661 -73.2661 141° Southeast 108 124 5,700 540 Climbing Boston Center
11:17AM 42.3456 -73.2406 137° Southeast 100 115 6,300 480 Climbing Boston Center
11:18AM 42.3269 -73.2153 135° Southeast 98 113 6,700 360 Climbing Boston Center
11:19AM 42.3022 -73.1867 139° Southeast 102 117 7,100 180 Climbing Boston Center
11:20AM 42.2772 -73.1639 146° Southeast 113 130 7,100  Level Boston Center
11:21AM 42.2503 -73.1356 142° Southeast 119 137 7,200 -60 Climbing Boston Center
11:22AM 42.2233 -73.1044 139° Southeast 125 144 7,000 -60 Descending Boston Center
11:23AM 42.1964 -73.0792 145° Southeast 121 139 7,100  Climbing Boston Center
11:24AM 42.1717 -73.0453 135° Southeast 126 145 7,100  Level Boston Center
11:25AM 42.1425 -73.0142 142° Southeast 129 148 7,100  Level Boston Center
11:26AM 42.1178 -72.9831 137° Southeast 126 145 7,100 -60 Level Boston Center
11:27AM 42.0908 -72.9492 137° Southeast 124 143 7,000  Descending Boston Center
11:29AM 42.0658 -72.9183 138° Southeast 122 140 7,100  Climbing Boston Center
11:30AM 42.0411 -72.8872 137° Southeast 123 142 7,100  Level Boston Center
11:31AM 42.0142 -72.8536 137° Southeast 126 145 7,100  Level Boston Center
11:32AM 41.9850 -72.8172 137° Southeast 128 147 7,100  Level Boston Center
11:33AM 41.9600 -72.7919 143° Southeast 129 148 7,100  Level Boston Center
11:33AM 41.9353 -72.7639 140° Southeast 127 146 7,100 -60 Level Boston Center
11:34AM 41.9122 -72.7358 138° Southeast 124 143 7,000 -60 Descending Boston Center
11:35AM 41.8833 -72.7022 139° Southeast 122 140 7,000  Level Boston Center
11:36AM 41.8561 -72.6714 140° Southeast 127 146 7,000  Level Boston Center
11:38AM 41.8314 -72.6408 137° Southeast 124 143 7,100  Climbing Boston Center
11:39AM 41.8064 -72.6072 135° Southeast 120 138 7,000  Descending Boston Center
11:40AM 41.7792 -72.5792 142° Southeast 123 142 7,100  Climbing Boston Center
11:41AM 41.7500 -72.5486 142° Southeast 125 144 7,100 -60 Level Boston Center
11:42AM 41.7272 -72.5181 135° Southeast 120 138 7,000  Descending Boston Center
11:43AM 41.7000 -72.4875 140° Southeast 119 137 7,100 -60 Climbing Boston Center
11:44AM 41.6772 -72.4567 135° Southeast 120 138 6,900 -480 Descending Boston Center
11:45AM 41.6500 -72.4233 138° Southeast 123 142 6,200 -720 Descending Boston Center
11:46AM 41.6250 -72.3928 138° Southeast 126 145 5,500 -600 Descending Boston Center
11:47AM 41.5981 -72.3622 140° Southeast 124 143 5,100 -300 Descending Boston Center
11:47AM 41.5814 -72.3403 135° Southeast 126 145 5,000 -120 Descending Boston Center
11:48AM 41.5689 -72.3264 140° Southeast 128 147 5,000  Level Boston Center
11:49AM 41.5375 -72.2931 142° Southeast 123 142 5,000 -240 Level Boston Center
11:50AM 41.5167 -72.2625 132° Southeast 123 142 4,600 -720 Descending Boston Center
11:51AM 41.4894 -72.2350 143° Southeast 124 143 3,700 -960 Descending Boston Center
11:52AM 41.4644 -72.2047 138° Southeast 117 135 2,700 -720 Descending Boston Center
11:53AM 41.4414 -72.1769 138° Southeast 122 140 2,400 -360 Descending Boston Center